createdAt,value
2023-05-14T00:01:01.006Z,60.56
2023-05-14T00:03:27.394Z,60.95
2023-05-14T00:05:53.769Z,61.17
2023-05-14T00:08:20.111Z,60.29
2023-05-14T00:10:46.423Z,60.72
2023-05-14T00:13:12.750Z,60.59
2023-05-14T00:15:39.113Z,60.75
2023-05-14T00:18:05.539Z,60.64
2023-05-14T00:20:31.922Z,60.81
2023-05-14T00:22:58.249Z,59.83
2023-05-14T00:25:24.603Z,60.20
2023-05-14T00:27:50.987Z,60.36
2023-05-14T00:30:17.310Z,60.48
2023-05-14T00:32:43.675Z,60.71
2023-05-14T00:35:10.083Z,60.28
2023-05-14T00:37:36.419Z,60.54
2023-05-14T00:40:02.769Z,60.54
2023-05-14T00:42:29.166Z,60.13
2023-05-14T00:44:55.518Z,59.79
2023-05-14T00:47:21.916Z,59.68
2023-05-14T00:49:48.290Z,60.12
2023-05-14T00:52:14.616Z,59.85
2023-05-14T00:54:40.955Z,59.81
2023-05-14T00:57:07.288Z,60.16
2023-05-14T00:59:33.635Z,60.72
2023-05-14T01:01:59.955Z,59.90
2023-05-14T01:04:26.301Z,60.01
2023-05-14T01:06:52.665Z,60.17
2023-05-14T01:09:19.004Z,59.62
2023-05-14T01:11:45.322Z,59.74
2023-05-14T01:14:11.653Z,59.39
2023-05-14T01:16:38.035Z,60.30
2023-05-14T01:19:04.415Z,60.59
2023-05-14T01:21:30.770Z,60.31
2023-05-14T01:23:57.086Z,60.20
2023-05-14T01:26:23.422Z,61.08
2023-05-14T01:28:49.736Z,61.13
2023-05-14T01:31:16.147Z,61.09
2023-05-14T01:33:42.536Z,62.09
2023-05-14T01:36:08.895Z,61.43
2023-05-14T01:38:35.206Z,61.62
2023-05-14T01:41:01.531Z,61.29
2023-05-14T01:43:27.893Z,61.40
2023-05-14T01:45:54.448Z,61.56
2023-05-14T01:48:20.857Z,60.98
2023-05-14T01:50:47.193Z,61.30
2023-05-14T01:53:13.529Z,61.35
2023-05-14T01:55:39.859Z,61.14
2023-05-14T01:58:06.196Z,61.81
2023-05-14T02:00:32.519Z,61.99
2023-05-14T02:02:58.941Z,62.25
2023-05-14T02:05:25.343Z,62.09
2023-05-14T02:07:51.669Z,61.79
2023-05-14T02:10:17.995Z,61.58
2023-05-14T02:12:44.325Z,62.18
2023-05-14T02:15:10.658Z,61.75
2023-05-14T02:17:37.014Z,61.36
2023-05-14T02:20:03.363Z,61.49
2023-05-14T02:22:29.696Z,62.34
2023-05-14T02:24:56.030Z,62.30
2023-05-14T02:27:22.374Z,61.71
2023-05-14T02:29:48.705Z,62.13
2023-05-14T02:32:15.088Z,63.16
2023-05-14T02:34:41.413Z,62.67
2023-05-14T02:37:07.724Z,62.13
2023-05-14T02:39:34.037Z,62.11
2023-05-14T02:42:00.372Z,62.03
2023-05-14T02:44:26.708Z,61.92
2023-05-14T02:46:53.137Z,62.38
2023-05-14T02:49:19.505Z,62.27
2023-05-14T02:51:45.851Z,62.62
2023-05-14T02:54:12.172Z,63.51
2023-05-14T02:56:38.508Z,63.17
2023-05-14T02:59:04.863Z,63.81
2023-05-14T03:01:31.712Z,63.31
2023-05-14T03:03:58.451Z,63.05
2023-05-14T03:06:24.766Z,62.81
2023-05-14T03:08:51.108Z,63.07
2023-05-14T03:11:17.454Z,62.92
2023-05-14T03:13:43.788Z,62.86
2023-05-14T03:16:10.212Z,62.63
2023-05-14T03:18:36.671Z,62.66
2023-05-14T03:21:03.129Z,63.32
2023-05-14T03:23:29.450Z,63.41
2023-05-14T03:25:55.788Z,63.88
2023-05-14T03:28:22.101Z,63.78
2023-05-14T03:30:48.477Z,63.84
2023-05-14T03:33:14.837Z,63.36
2023-05-14T03:35:41.148Z,63.77
2023-05-14T03:38:07.494Z,63.63
2023-05-14T03:40:33.844Z,63.71
2023-05-14T03:43:00.195Z,63.02
2023-05-14T03:45:26.526Z,63.30
2023-05-14T03:47:52.903Z,62.91
2023-05-14T03:50:19.272Z,63.12
2023-05-14T03:52:45.612Z,61.99
2023-05-14T03:55:11.971Z,62.53
2023-05-14T03:57:38.313Z,62.37
2023-05-14T04:00:04.631Z,62.14
2023-05-14T04:02:31.071Z,62.34
2023-05-14T04:04:57.558Z,61.48
2023-05-14T04:07:23.947Z,61.76
2023-05-14T04:09:50.290Z,62.09
2023-05-14T04:12:16.620Z,61.79
2023-05-14T04:14:42.945Z,61.32
2023-05-14T04:17:09.288Z,61.59
2023-05-14T04:19:35.640Z,61.38
2023-05-14T04:22:01.982Z,61.55
2023-05-14T04:24:28.302Z,61.44
2023-05-14T04:26:54.617Z,61.43
2023-05-14T04:29:20.939Z,61.41
2023-05-14T04:31:47.275Z,61.18
2023-05-14T04:34:13.610Z,61.07
2023-05-14T04:36:39.917Z,61.40
2023-05-14T04:39:06.247Z,61.24
2023-05-14T04:41:32.579Z,61.04
2023-05-14T04:43:58.906Z,61.14
2023-05-14T04:46:25.341Z,61.76
2023-05-14T04:48:51.689Z,61.63
2023-05-14T04:51:17.994Z,61.54
2023-05-14T04:53:44.310Z,61.61
2023-05-14T04:56:10.618Z,61.71
2023-05-14T04:58:36.956Z,61.90
2023-05-14T05:01:03.319Z,61.77
2023-05-14T05:03:29.791Z,61.87
2023-05-14T05:05:56.208Z,61.69
2023-05-14T05:08:22.545Z,61.53
2023-05-14T05:10:48.883Z,61.94
2023-05-14T05:13:15.194Z,62.25
2023-05-14T05:15:41.537Z,62.06
2023-05-14T05:18:08.157Z,62.15
2023-05-14T05:20:34.543Z,61.98
2023-05-14T05:23:00.870Z,62.16
2023-05-14T05:25:27.191Z,61.83
2023-05-14T05:27:53.550Z,62.17
2023-05-14T05:30:19.872Z,61.71
2023-05-14T05:32:46.232Z,61.85
2023-05-14T05:35:12.584Z,61.65
2023-05-14T05:37:38.926Z,61.62
2023-05-14T05:40:05.242Z,61.98
2023-05-14T05:42:31.559Z,61.67
2023-05-14T05:44:57.894Z,62.00
2023-05-14T05:47:24.263Z,61.22
2023-05-14T05:49:50.621Z,61.27
2023-05-14T05:52:16.939Z,61.79
2023-05-14T05:54:43.272Z,61.29
2023-05-14T05:57:09.594Z,61.34
2023-05-14T05:59:35.912Z,61.42
2023-05-14T06:02:02.315Z,61.75
2023-05-14T06:04:28.679Z,61.46
2023-05-14T06:06:55.038Z,61.31
2023-05-14T06:09:21.352Z,60.98
2023-05-14T06:11:47.681Z,60.82
2023-05-14T06:14:14.012Z,60.43
2023-05-14T06:16:40.357Z,60.70
2023-05-14T06:19:06.749Z,61.27
2023-05-14T06:21:33.154Z,61.23
2023-05-14T06:23:59.474Z,61.03
2023-05-14T06:26:25.797Z,60.48
2023-05-14T06:28:52.124Z,61.10
2023-05-14T06:31:18.468Z,61.00
2023-05-14T06:33:44.797Z,60.44
2023-05-14T06:36:11.122Z,60.36
2023-05-14T06:38:37.460Z,60.19
2023-05-14T06:41:03.769Z,59.65
2023-05-14T06:43:30.101Z,59.76
2023-05-14T06:45:56.420Z,59.23
2023-05-14T06:48:22.989Z,58.91
2023-05-14T06:50:49.382Z,59.52
2023-05-14T06:53:15.717Z,59.15
2023-05-14T06:55:42.063Z,58.20
2023-05-14T06:58:08.400Z,58.83
2023-05-14T07:00:34.740Z,58.99
2023-05-14T07:03:01.120Z,58.68
2023-05-14T07:05:27.496Z,57.91
2023-05-14T07:07:53.805Z,57.92
2023-05-14T07:10:20.111Z,57.55
2023-05-14T07:12:46.444Z,57.90
2023-05-14T07:15:12.748Z,57.40
2023-05-14T07:17:39.114Z,57.75
2023-05-14T07:20:05.513Z,56.91
2023-05-14T07:22:31.844Z,56.48
2023-05-14T07:24:58.181Z,55.99
2023-05-14T07:27:24.520Z,56.69
2023-05-14T07:29:50.858Z,55.73
2023-05-14T07:32:17.164Z,54.45
2023-05-14T07:34:43.579Z,54.81
2023-05-14T07:37:09.911Z,54.64
2023-05-14T07:39:36.223Z,54.02
2023-05-14T07:42:02.528Z,54.46
2023-05-14T07:44:28.858Z,53.92
2023-05-14T07:46:55.244Z,54.72
2023-05-14T07:49:21.571Z,53.44
2023-05-14T07:51:47.867Z,53.33
2023-05-14T07:54:14.172Z,52.93
2023-05-14T07:56:40.481Z,53.53
2023-05-14T07:59:06.818Z,54.39
2023-05-14T08:01:33.140Z,54.73
2023-05-14T08:03:59.565Z,53.04
2023-05-14T08:06:25.906Z,53.00
2023-05-14T08:08:52.218Z,53.33
2023-05-14T08:11:18.643Z,52.83
2023-05-14T08:13:45.028Z,52.67
2023-05-14T08:16:11.355Z,52.45
2023-05-14T08:18:37.752Z,51.90
2023-05-14T08:21:04.114Z,52.05
2023-05-14T08:23:30.455Z,51.43
2023-05-14T08:25:56.777Z,52.07
2023-05-14T08:28:23.128Z,52.19
2023-05-14T08:30:49.498Z,51.93
2023-05-14T08:33:15.870Z,50.42
2023-05-14T08:35:42.211Z,49.99
2023-05-14T08:38:08.534Z,49.72
2023-05-14T08:40:34.844Z,49.93
2023-05-14T08:43:01.171Z,49.36
2023-05-14T08:45:27.478Z,50.85
2023-05-14T08:47:53.847Z,49.14
2023-05-14T08:50:22.588Z,49.12
2023-05-14T08:52:49.494Z,49.58
2023-05-14T08:55:15.833Z,48.47
2023-05-14T08:57:42.143Z,47.43
2023-05-14T09:00:08.476Z,46.87
2023-05-14T09:02:34.952Z,47.45
2023-05-14T09:05:01.459Z,45.42
2023-05-14T09:07:27.807Z,47.02
2023-05-14T09:09:54.120Z,46.41
2023-05-14T09:12:20.511Z,44.62
2023-05-14T09:14:46.818Z,43.09
2023-05-14T09:17:13.148Z,44.46
2023-05-14T09:19:39.469Z,44.73
2023-05-14T09:22:05.777Z,44.54
2023-05-14T09:24:32.092Z,45.78
2023-05-14T09:26:58.405Z,43.83
2023-05-14T09:29:24.742Z,43.28
2023-05-14T09:31:51.098Z,45.36
2023-05-14T09:34:17.429Z,44.00
2023-05-14T09:36:43.744Z,43.87
2023-05-14T09:39:10.072Z,44.78
2023-05-14T09:41:36.372Z,43.89
2023-05-14T09:44:03.718Z,44.31
2023-05-14T09:46:31.702Z,45.11
2023-05-14T09:48:58.029Z,45.66
2023-05-14T09:51:24.338Z,45.54
2023-05-14T09:53:50.652Z,45.80
2023-05-14T09:56:16.982Z,45.94
2023-05-14T09:58:43.311Z,46.49
2023-05-14T10:01:09.681Z,47.09
2023-05-14T10:03:36.014Z,46.23
2023-05-14T10:06:02.311Z,47.14
2023-05-14T10:08:28.636Z,47.33
2023-05-14T10:10:54.961Z,45.85
2023-05-14T10:13:21.287Z,45.84
2023-05-14T10:15:47.598Z,45.66
2023-05-14T10:18:13.984Z,45.55
2023-05-14T10:20:40.311Z,45.72
2023-05-14T10:23:06.636Z,45.96
2023-05-14T10:25:34.057Z,46.23
2023-05-14T10:28:00.386Z,45.71
2023-05-14T10:30:26.810Z,44.98
2023-05-14T10:32:53.320Z,45.66
2023-05-14T10:35:19.702Z,45.44
2023-05-14T10:37:46.037Z,44.87
2023-05-14T10:40:12.388Z,45.70
2023-05-14T10:42:38.722Z,45.28
2023-05-14T10:45:05.052Z,45.89
2023-05-14T10:47:31.415Z,44.71
2023-05-14T10:49:57.764Z,45.19
2023-05-14T10:52:24.085Z,45.52
2023-05-14T10:54:50.417Z,45.20
2023-05-14T10:57:16.726Z,43.74
2023-05-14T10:59:43.034Z,43.69
2023-05-14T11:02:09.468Z,42.98
2023-05-14T11:04:35.843Z,43.74
2023-05-14T11:07:02.161Z,43.78
2023-05-14T11:09:28.475Z,43.70
2023-05-14T11:11:54.795Z,44.28
2023-05-14T11:14:21.105Z,44.20
2023-05-14T11:16:47.443Z,43.67
2023-05-14T11:19:13.962Z,44.21
2023-05-14T11:21:40.564Z,44.03
2023-05-14T11:24:06.944Z,43.80
2023-05-14T11:26:33.288Z,43.88
2023-05-14T11:28:59.619Z,42.92
2023-05-14T11:31:25.983Z,43.54
2023-05-14T11:33:52.311Z,43.24
2023-05-14T11:36:18.635Z,43.69
2023-05-14T11:38:44.954Z,43.51
2023-05-14T11:41:11.264Z,42.17
2023-05-14T11:43:37.585Z,42.24
2023-05-14T11:46:03.934Z,42.04
2023-05-14T11:48:30.280Z,41.63
2023-05-14T11:50:56.589Z,41.31
2023-05-14T11:53:22.907Z,41.69
2023-05-14T11:55:49.258Z,40.78
2023-05-14T11:58:15.569Z,41.50
2023-05-14T12:00:41.886Z,42.18
2023-05-14T12:03:08.318Z,42.27
2023-05-14T12:05:34.686Z,42.18
2023-05-14T12:08:00.987Z,41.70
2023-05-14T12:10:27.294Z,42.09
2023-05-14T12:12:53.630Z,41.03
2023-05-14T12:15:19.971Z,41.10
2023-05-14T12:17:46.355Z,40.55
2023-05-14T12:20:12.668Z,40.71
2023-05-14T12:22:38.983Z,40.90
2023-05-14T12:25:05.297Z,40.98
2023-05-14T12:27:31.602Z,42.09
2023-05-14T12:30:01.990Z,42.30
2023-05-14T12:32:35.941Z,41.60
2023-05-14T12:35:02.314Z,40.68
2023-05-14T12:37:31.035Z,41.04
2023-05-14T12:39:57.604Z,38.92
2023-05-14T12:42:23.936Z,39.83
2023-05-14T12:44:50.264Z,39.69
2023-05-14T12:47:16.605Z,38.18
2023-05-14T12:49:42.927Z,37.98
2023-05-14T12:54:43.637Z,40.10
2023-05-14T12:57:09.987Z,40.52
2023-05-14T12:59:36.291Z,39.54
2023-05-14T13:02:02.597Z,39.96
2023-05-14T13:04:29.015Z,38.81
2023-05-14T13:06:55.457Z,38.90
2023-05-14T13:09:21.774Z,39.12
2023-05-14T13:11:48.084Z,40.24
2023-05-14T13:14:14.406Z,39.82
2023-05-14T13:16:40.741Z,39.96
2023-05-14T13:19:07.151Z,39.47
2023-05-14T13:21:33.527Z,38.77
2023-05-14T13:23:59.836Z,38.98
2023-05-14T13:26:26.141Z,40.11
2023-05-14T13:28:52.444Z,39.83
2023-05-14T13:31:18.792Z,39.22
2023-05-14T13:33:45.109Z,39.50
2023-05-14T13:36:11.441Z,39.90
2023-05-14T13:38:37.760Z,40.36
2023-05-14T13:41:04.098Z,40.71
2023-05-14T13:43:30.429Z,40.82
2023-05-14T13:45:56.814Z,40.40
2023-05-14T13:48:23.169Z,39.98
2023-05-14T13:50:49.493Z,39.90
2023-05-14T13:53:15.806Z,39.67
2023-05-14T13:55:42.174Z,39.91
2023-05-14T13:58:08.476Z,39.33
2023-05-14T14:00:34.827Z,39.14
2023-05-14T14:03:01.186Z,39.08
2023-05-14T14:05:27.675Z,39.18
2023-05-14T14:08:00.929Z,38.53
2023-05-14T14:10:34.463Z,37.56
2023-05-14T14:13:00.762Z,37.83
2023-05-14T14:15:27.095Z,37.33
2023-05-14T14:17:53.500Z,36.18
2023-05-14T14:20:19.866Z,35.47
2023-05-14T14:22:46.177Z,37.29
2023-05-14T14:25:12.480Z,35.95
2023-05-14T14:27:38.826Z,35.89
2023-05-14T14:30:05.142Z,36.75
2023-05-14T14:32:31.479Z,36.73
2023-05-14T14:34:57.849Z,38.17
2023-05-14T14:37:24.166Z,38.03
2023-05-14T14:39:50.470Z,38.53
2023-05-14T14:42:16.808Z,38.56
2023-05-14T14:44:43.113Z,39.28
2023-05-14T14:47:09.442Z,38.31
2023-05-14T14:49:35.758Z,39.01
2023-05-14T14:52:02.080Z,39.33
2023-05-14T14:54:28.394Z,37.94
2023-05-14T14:56:54.699Z,37.61
2023-05-14T14:59:21.026Z,37.39
2023-05-14T15:01:47.370Z,36.85
2023-05-14T15:04:13.733Z,36.76
2023-05-14T15:06:40.053Z,36.99
2023-05-14T15:09:06.377Z,37.41
2023-05-14T15:11:32.708Z,37.41
2023-05-14T15:13:59.043Z,36.24
2023-05-14T15:16:25.406Z,36.17
2023-05-14T15:18:51.821Z,35.57
2023-05-14T15:21:18.186Z,36.65
2023-05-14T15:23:44.511Z,36.01
2023-05-14T15:26:10.835Z,37.48
2023-05-14T15:28:37.186Z,36.43
2023-05-14T15:31:03.580Z,37.00
2023-05-14T15:33:29.908Z,36.40
2023-05-14T15:35:56.228Z,36.70
2023-05-14T15:38:22.552Z,36.25
2023-05-14T15:40:48.883Z,36.05
2023-05-14T15:43:15.199Z,37.21
2023-05-14T15:45:41.549Z,36.35
2023-05-14T15:48:07.934Z,35.75
2023-05-14T15:50:34.325Z,36.03
2023-05-14T15:53:00.649Z,35.34
2023-05-14T15:55:26.980Z,36.68
2023-05-14T15:57:53.309Z,37.14
2023-05-14T16:00:19.650Z,37.36
2023-05-14T16:02:46.113Z,39.67
2023-05-14T16:05:12.495Z,40.84
2023-05-14T16:07:38.827Z,41.61
2023-05-14T16:10:05.233Z,41.60
2023-05-14T16:12:31.747Z,41.29
2023-05-14T16:14:58.057Z,40.66
2023-05-14T16:17:24.500Z,41.26
2023-05-14T16:19:51.350Z,41.41
2023-05-14T16:22:18.689Z,41.40
2023-05-14T16:24:45.001Z,41.96
2023-05-14T16:27:11.337Z,41.16
2023-05-14T16:29:37.678Z,41.67
2023-05-14T16:32:04.037Z,41.20
2023-05-14T16:34:30.358Z,39.60
2023-05-14T16:36:56.687Z,40.29
2023-05-14T16:39:23.014Z,40.11
2023-05-14T16:41:49.487Z,40.11
2023-05-14T16:44:15.784Z,40.35
2023-05-14T16:46:42.106Z,40.57
2023-05-14T16:49:08.471Z,41.49
2023-05-14T16:51:34.793Z,40.87
2023-05-14T16:54:01.200Z,40.64
2023-05-14T16:56:27.528Z,40.60
2023-05-14T16:58:53.861Z,41.55
2023-05-14T17:01:20.206Z,42.60
2023-05-14T17:03:46.580Z,41.92
2023-05-14T17:06:12.912Z,41.64
2023-05-14T17:08:39.237Z,41.86
2023-05-14T17:11:05.692Z,41.56
2023-05-14T17:13:32.272Z,41.73
2023-05-14T17:15:58.633Z,42.66
2023-05-14T17:18:25.002Z,41.95
2023-05-14T17:20:51.334Z,42.45
2023-05-14T17:23:17.647Z,42.40
2023-05-14T17:25:43.966Z,42.90
2023-05-14T17:28:10.298Z,43.31
2023-05-14T17:30:36.625Z,42.78
2023-05-14T17:33:03.017Z,43.55
2023-05-14T17:35:29.362Z,43.11
2023-05-14T17:37:55.700Z,43.82
2023-05-14T17:40:22.020Z,44.39
2023-05-14T17:42:48.337Z,44.44
2023-05-14T17:45:14.675Z,44.52
2023-05-14T17:47:41.042Z,44.56
2023-05-14T17:50:07.434Z,45.24
2023-05-14T17:52:33.788Z,45.16
2023-05-14T17:55:00.196Z,45.47
2023-05-14T17:57:26.620Z,45.53
2023-05-14T17:59:52.966Z,45.66
2023-05-14T18:02:19.325Z,46.41
2023-05-14T18:04:45.645Z,45.69
2023-05-14T18:07:11.959Z,45.07
2023-05-14T18:09:38.276Z,45.41
2023-05-14T18:12:04.624Z,46.43
2023-05-14T18:14:30.963Z,46.93
2023-05-14T18:16:57.397Z,47.04
2023-05-14T18:19:23.838Z,47.18
2023-05-14T18:21:50.171Z,47.89
2023-05-14T18:24:16.551Z,49.34
2023-05-14T18:26:42.890Z,51.86
2023-05-14T18:29:09.231Z,52.43
2023-05-14T18:31:35.628Z,53.43
2023-05-14T18:34:01.969Z,53.31
2023-05-14T18:36:28.289Z,54.24
2023-05-14T18:38:54.646Z,54.02
2023-05-14T18:41:20.970Z,55.25
2023-05-14T18:43:47.286Z,56.04
2023-05-14T18:46:13.624Z,55.51
2023-05-14T18:48:39.975Z,56.30
2023-05-14T18:51:06.309Z,55.74
2023-05-14T18:53:32.619Z,56.55
2023-05-14T18:55:58.942Z,56.45
2023-05-14T18:58:25.267Z,55.93
2023-05-14T19:00:51.584Z,56.80
2023-05-14T19:03:17.979Z,56.54
2023-05-14T19:05:44.396Z,56.83
2023-05-14T19:08:10.726Z,57.09
2023-05-14T19:10:37.068Z,56.90
2023-05-14T19:13:03.402Z,57.43
2023-05-14T19:15:29.732Z,57.69
2023-05-14T19:17:56.066Z,58.02
2023-05-14T19:20:22.385Z,58.79
2023-05-14T19:22:48.684Z,59.73
2023-05-14T19:25:14.984Z,59.20
2023-05-14T19:27:41.318Z,59.07
2023-05-14T19:30:07.663Z,59.12
2023-05-14T19:32:34.019Z,58.79
2023-05-14T19:35:00.361Z,59.36
2023-05-14T19:37:26.716Z,58.56
2023-05-14T19:39:53.043Z,59.37
2023-05-14T19:42:19.354Z,59.34
2023-05-14T19:44:45.665Z,59.21
2023-05-14T19:47:12.171Z,60.26
2023-05-14T19:49:38.634Z,61.32
2023-05-14T19:52:04.948Z,61.11
2023-05-14T19:54:31.262Z,61.10
2023-05-14T19:56:57.565Z,61.50
2023-05-14T19:59:23.865Z,61.28
2023-05-14T20:01:50.171Z,61.97
2023-05-14T20:04:16.474Z,61.15
2023-05-14T20:06:42.789Z,61.28
2023-05-14T20:09:09.107Z,61.40
2023-05-14T20:11:35.429Z,62.75
2023-05-14T20:14:01.742Z,62.49
2023-05-14T20:16:28.094Z,62.40
2023-05-14T20:18:54.500Z,63.28
2023-05-14T20:21:20.836Z,62.38
2023-05-14T20:23:47.128Z,62.86
2023-05-14T20:26:13.465Z,62.38
2023-05-14T20:28:39.765Z,62.63
2023-05-14T20:31:06.113Z,62.63
2023-05-14T20:33:32.516Z,62.79
2023-05-14T20:35:58.837Z,63.25
2023-05-14T20:38:25.138Z,62.44
2023-05-14T20:40:51.455Z,62.84
2023-05-14T20:43:17.813Z,61.81
2023-05-14T20:45:44.129Z,62.02
2023-05-14T20:48:10.488Z,60.99
2023-05-14T20:50:36.817Z,60.69
2023-05-14T20:53:03.140Z,60.91
2023-05-14T20:55:29.469Z,60.81
2023-05-14T20:57:55.818Z,60.54
2023-05-14T21:00:22.149Z,60.69
2023-05-14T21:02:48.532Z,60.71
2023-05-14T21:05:14.949Z,61.27
2023-05-14T21:07:41.276Z,61.17
2023-05-14T21:10:07.687Z,61.02
2023-05-14T21:12:34.001Z,61.13
2023-05-14T21:15:00.321Z,61.25
2023-05-14T21:17:26.702Z,61.43
2023-05-14T21:19:53.051Z,61.95
2023-05-14T21:22:19.368Z,61.28
2023-05-14T21:24:45.674Z,61.39
2023-05-14T21:27:11.991Z,61.61
2023-05-14T21:29:38.312Z,61.64
2023-05-14T21:32:04.700Z,61.36
2023-05-14T21:34:32.033Z,61.57
2023-05-14T21:36:58.454Z,61.93
2023-05-14T21:39:24.793Z,62.44
2023-05-14T21:41:51.151Z,62.45
2023-05-14T21:44:17.475Z,62.40
2023-05-14T21:46:43.779Z,62.55
2023-05-14T21:49:10.104Z,62.58
2023-05-14T21:51:36.452Z,62.42
2023-05-14T21:54:02.775Z,62.22
2023-05-14T21:56:29.135Z,62.16
2023-05-14T21:58:55.460Z,61.81
2023-05-14T22:01:21.817Z,61.85
2023-05-14T22:03:48.183Z,61.53
2023-05-14T22:06:14.495Z,61.87
2023-05-14T22:08:40.814Z,62.42
2023-05-14T22:11:07.157Z,62.44
2023-05-14T22:13:33.468Z,62.76
2023-05-14T22:16:09.058Z,63.00
2023-05-14T22:18:38.890Z,62.87
2023-05-14T22:21:05.248Z,62.73
2023-05-14T22:23:31.588Z,62.46
2023-05-14T22:25:57.912Z,62.28
2023-05-14T22:28:24.219Z,62.46
2023-05-14T22:30:50.549Z,62.36
2023-05-14T22:33:16.865Z,62.57
2023-05-14T22:35:43.182Z,62.91
2023-05-14T22:38:09.505Z,63.94
2023-05-14T22:40:35.822Z,63.61
2023-05-14T22:43:02.144Z,63.86
2023-05-14T22:45:28.471Z,64.30
2023-05-14T22:47:54.850Z,64.42
2023-05-14T22:50:21.178Z,64.74
2023-05-14T22:52:47.513Z,64.03
2023-05-14T22:55:13.831Z,64.43
2023-05-14T22:57:40.155Z,63.85
2023-05-14T23:00:06.457Z,63.73
2023-05-14T23:02:32.868Z,63.33
2023-05-14T23:04:59.264Z,63.41
2023-05-14T23:07:25.596Z,62.50
2023-05-14T23:09:51.918Z,63.32
2023-05-14T23:12:18.230Z,63.86
2023-05-14T23:14:44.536Z,64.07
2023-05-14T23:17:10.870Z,63.09
2023-05-14T23:19:37.225Z,63.58
2023-05-14T23:22:03.557Z,64.83
2023-05-14T23:24:29.883Z,64.58
2023-05-14T23:26:56.205Z,63.87
2023-05-14T23:29:22.508Z,63.70
2023-05-14T23:31:48.866Z,63.71
2023-05-14T23:34:15.235Z,63.32
2023-05-14T23:36:41.548Z,63.65
2023-05-14T23:39:07.868Z,63.25
2023-05-14T23:41:34.196Z,63.04
2023-05-14T23:44:00.546Z,63.15
2023-05-14T23:46:27.004Z,63.63
2023-05-14T23:48:53.393Z,63.92
2023-05-14T23:51:19.708Z,63.56
2023-05-14T23:53:46.030Z,63.81
2023-05-14T23:56:12.358Z,64.42
2023-05-14T23:58:38.674Z,64.64
